Time;durP1;ratioP1;P1;durP2;ratioP2;P2;SDS_P1;SDS_P2;PMS_P1;PMS_P2;Temp;Humidity;BMP_temperature;BMP_pressure;BME280_temperature;BME280_humidity;BME280_pressure;Samples;Min_cycle;Max_cycle;Signal;HPM_P1;HPM_P2
2023/10/10 00:01:03;;;;;;;14.98;6.50;;;13.60;99.90;;;;;;4955112;29;20042;-92
2023/10/10 00:03:34;;;;;;;9.63;6.07;;;13.60;99.90;;;;;;4955422;29;20388;-92
2023/10/10 00:06:06;;;;;;;12.85;6.90;;;13.60;99.90;;;;;;4956164;28;20201;-91
2023/10/10 00:08:36;;;;;;;11.23;6.38;;;13.60;99.90;;;;;;4955686;29;20019;-91
2023/10/10 00:11:14;;;;;;;16.05;7.25;;;13.60;99.90;;;;;;4959266;29;20039;-92
2023/10/10 00:13:52;;;;;;;9.82;6.60;;;13.60;99.90;;;;;;4960501;29;20027;-93
2023/10/10 00:16:35;;;;;;;9.10;6.35;;;13.60;99.90;;;;;;4966259;28;20023;-93
2023/10/10 00:21:51;;;;;;;11.85;6.40;;;13.60;99.90;;;;;;4956433;29;20519;-92
2023/10/10 00:24:23;;;;;;;11.00;6.35;;;13.60;99.90;;;;;;4971246;28;20083;-92
2023/10/10 00:26:49;;;;;;;12.30;6.40;;;13.60;99.90;;;;;;4955135;29;20074;-92
2023/10/10 00:29:18;;;;;;;9.90;5.97;;;13.60;99.90;;;;;;4954897;29;20020;-92
2023/10/10 00:31:47;;;;;;;11.05;5.90;;;13.60;99.90;;;;;;4955247;28;20473;-93
2023/10/10 00:34:13;;;;;;;13.75;7.03;;;13.60;99.90;;;;;;4954664;29;20048;-93
2023/10/10 00:36:41;;;;;;;12.55;6.90;;;13.60;99.90;;;;;;4955675;28;20114;-93
2023/10/10 00:39:22;;;;;;;12.77;6.72;;;13.60;99.90;;;;;;4955656;28;20102;-92
2023/10/10 00:44:17;;;;;;;11.68;7.20;;;13.70;99.90;;;;;;4956204;29;20039;-93
2023/10/10 00:46:51;;;;;;;12.40;7.00;;;13.70;99.90;;;;;;4971462;28;20051;-93
2023/10/10 00:49:23;;;;;;;11.57;5.80;;;13.70;99.90;;;;;;4959868;29;20126;-93
2023/10/10 00:51:53;;;;;;;18.35;7.07;;;13.70;99.90;;;;;;4962171;28;20051;-93
2023/10/10 00:54:26;;;;;;;13.50;7.40;;;13.70;99.90;;;;;;4960725;29;20039;-93
2023/10/10 00:56:56;;;;;;;15.10;6.95;;;13.70;99.90;;;;;;4960812;29;20031;-93
2023/10/10 00:59:35;;;;;;;13.30;8.00;;;13.70;99.90;;;;;;4960954;29;20445;-93
2023/10/10 01:02:05;;;;;;;10.52;6.82;;;13.70;99.90;;;;;;4965209;28;20118;-92
2023/10/10 01:04:39;;;;;;;12.00;7.28;;;13.70;99.90;;;;;;4962327;28;20082;-91
2023/10/10 01:07:09;;;;;;;16.90;7.78;;;13.70;99.90;;;;;;4960764;29;20030;-93
2023/10/10 01:09:44;;;;;;;15.80;8.15;;;13.70;99.90;;;;;;4962390;29;20027;-92
2023/10/10 01:12:09;;;;;;;13.25;8.48;;;13.60;99.90;;;;;;4963132;28;20030;-93
2023/10/10 01:14:38;;;;;;;13.07;6.47;;;13.60;99.90;;;;;;4961110;28;20035;-93
2023/10/10 01:17:05;;;;;;;18.50;7.25;;;13.60;99.90;;;;;;4945468;29;20050;-94
2023/10/10 01:19:34;;;;;;;13.40;7.38;;;13.60;99.90;;;;;;4944974;29;20606;-93
2023/10/10 01:22:03;;;;;;;18.27;8.10;;;13.60;99.90;;;;;;4948022;29;20107;-93
2023/10/10 01:24:32;;;;;;;10.75;5.75;;;13.60;99.90;;;;;;4945375;29;20035;-93
2023/10/10 01:27:15;;;;;;;13.75;7.75;;;13.50;99.90;;;;;;4943565;29;20103;-93
2023/10/10 01:29:41;;;;;;;17.23;7.70;;;13.50;99.90;;;;;;4940583;29;20046;-93
2023/10/10 01:32:10;;;;;;;13.50;7.57;;;13.50;99.90;;;;;;4939360;29;20094;-92
2023/10/10 01:34:43;;;;;;;14.30;7.82;;;13.50;99.90;;;;;;4940089;29;20032;-93
2023/10/10 01:37:22;;;;;;;13.65;7.10;;;13.50;99.90;;;;;;4939964;29;20024;-93
2023/10/10 01:40:16;;;;;;;12.40;7.35;;;13.50;99.90;;;;;;4939947;29;20048;-92
2023/10/10 01:42:51;;;;;;;13.63;7.53;;;13.40;99.90;;;;;;4939438;29;20082;-91
2023/10/10 01:45:20;;;;;;;11.65;7.00;;;13.40;99.90;;;;;;4940034;29;20139;-92
2023/10/10 01:48:08;;;;;;;14.25;7.65;;;13.40;99.90;;;;;;4942233;29;20034;-92
2023/10/10 01:50:34;;;;;;;12.75;7.00;;;13.40;99.90;;;;;;4942594;29;20039;-93
2023/10/10 01:53:00;;;;;;;13.80;7.43;;;13.40;99.90;;;;;;4942845;29;20032;-92
2023/10/10 01:55:26;;;;;;;12.07;6.25;;;13.30;99.90;;;;;;4943454;29;20027;-93
2023/10/10 01:57:54;;;;;;;14.07;7.07;;;13.40;99.90;;;;;;4951615;29;20034;-92
2023/10/10 02:00:25;;;;;;;14.23;7.47;;;13.40;99.90;;;;;;4955724;29;20138;-92
2023/10/10 02:02:55;;;;;;;9.75;5.85;;;13.40;99.90;;;;;;4961481;28;20030;-92
2023/10/10 02:08:11;;;;;;;12.10;6.50;;;13.50;99.90;;;;;;4960514;28;20078;-92
2023/10/10 02:10:43;;;;;;;13.30;6.55;;;13.40;99.90;;;;;;4958667;29;20397;-93
2023/10/10 02:13:11;;;;;;;12.55;5.45;;;13.50;99.90;;;;;;4961750;29;20070;-93
2023/10/10 02:15:39;;;;;;;13.75;6.97;;;13.50;99.90;;;;;;4958991;29;20031;-93
2023/10/10 02:18:23;;;;;;;12.32;6.47;;;13.50;99.90;;;;;;4958974;29;20023;-92
2023/10/10 02:20:50;;;;;;;8.93;5.45;;;13.50;99.90;;;;;;4956867;29;20043;-92
2023/10/10 02:25:53;;;;;;;13.35;5.80;;;13.50;99.90;;;;;;4962459;28;20035;-93
2023/10/10 02:30:48;;;;;;;11.93;5.80;;;13.50;99.90;;;;;;4958259;28;20020;-92
2023/10/10 02:35:55;;;;;;;12.65;6.30;;;13.50;99.90;;;;;;4959880;29;20043;-93
2023/10/10 02:38:34;;;;;;;12.20;6.20;;;13.50;99.90;;;;;;4953460;28;20024;-91
2023/10/10 02:44:01;;;;;;;12.10;7.05;;;13.50;99.90;;;;;;4955394;29;20393;-91
2023/10/10 02:46:35;;;;;;;10.43;6.10;;;13.40;99.90;;;;;;4959878;28;20545;-90
2023/10/10 02:49:12;;;;;;;13.82;5.85;;;13.40;99.90;;;;;;4958226;29;20031;-91
2023/10/10 02:51:48;;;;;;;10.00;4.90;;;13.40;99.90;;;;;;4958463;29;20020;-92
2023/10/10 02:56:57;;;;;;;13.88;5.95;;;13.30;99.90;;;;;;4975056;29;20019;-93
2023/10/10 02:59:31;;;;;;;13.13;5.85;;;13.30;99.90;;;;;;4963374;28;20023;-92
2023/10/10 03:01:59;;;;;;;14.05;6.20;;;13.40;99.90;;;;;;4958636;29;20031;-92
2023/10/10 03:07:10;;;;;;;13.50;5.85;;;13.30;99.90;;;;;;4954641;29;20515;-92
2023/10/10 03:10:06;;;;;;;16.25;6.65;;;13.40;99.90;;;;;;4957053;29;20035;-91
2023/10/10 03:12:27;;;;;;;8.68;5.35;;;13.40;99.90;;;;;;4956605;29;20024;-92
2023/10/10 03:14:53;;;;;;;15.15;6.40;;;13.40;99.90;;;;;;4956938;28;20027;-91
2023/10/10 03:17:31;;;;;;;13.98;6.50;;;13.40;99.90;;;;;;4956226;29;20114;-90
2023/10/10 03:20:13;;;;;;;15.35;6.22;;;13.40;99.90;;;;;;4969767;28;20505;-92
2023/10/10 03:31:08;;;;;;;15.20;6.47;;;13.30;99.90;;;;;;4900041;29;20012;-92
2023/10/10 05:25:31;;;;;;;15.48;5.45;;;13.10;99.90;;;;;;4953323;29;20527;-91
2023/10/10 05:27:59;;;;;;;9.60;5.32;;;13.10;99.90;;;;;;4954583;29;20027;-91
2023/10/10 05:30:27;;;;;;;10.07;4.93;;;13.00;99.90;;;;;;4957169;28;20019;-91
2023/10/10 05:33:02;;;;;;;9.48;5.07;;;13.00;99.90;;;;;;4962143;29;20027;-91
2023/10/10 05:35:29;;;;;;;11.20;5.18;;;13.00;99.90;;;;;;4961558;29;20067;-91
2023/10/10 05:37:55;;;;;;;16.15;5.25;;;13.00;99.90;;;;;;4957698;28;20015;-91
2023/10/10 05:40:21;;;;;;;8.40;4.65;;;13.00;99.90;;;;;;4958778;29;20049;-92
2023/10/10 05:42:47;;;;;;;10.05;4.90;;;13.00;99.90;;;;;;4957900;29;20023;-91
2023/10/10 05:45:14;;;;;;;11.07;5.55;;;13.00;99.90;;;;;;4957502;29;21165;-91
2023/10/10 05:47:40;;;;;;;10.43;5.20;;;13.00;99.90;;;;;;4954178;29;20027;-92
2023/10/10 05:50:10;;;;;;;9.63;5.50;;;13.00;99.90;;;;;;4957502;29;20027;-92
2023/10/10 05:52:38;;;;;;;11.05;5.60;;;13.00;99.90;;;;;;4957311;29;20035;-92
2023/10/10 05:55:05;;;;;;;9.05;5.00;;;13.00;99.90;;;;;;4957204;29;20414;-92
2023/10/10 05:57:33;;;;;;;12.95;5.60;;;13.10;99.90;;;;;;4956862;28;20489;-91
2023/10/10 05:59:59;;;;;;;12.05;5.00;;;13.10;99.90;;;;;;4968195;29;20556;-93
2023/10/10 06:02:27;;;;;;;14.07;5.93;;;13.10;99.90;;;;;;4974488;29;20031;-91
2023/10/10 06:04:53;;;;;;;12.93;6.43;;;13.10;99.90;;;;;;4973278;29;20055;-89
2023/10/10 06:07:20;;;;;;;10.32;5.32;;;13.10;99.90;;;;;;4954844;29;20031;-91
2023/10/10 06:09:51;;;;;;;12.55;5.50;;;13.10;99.90;;;;;;4958950;28;20038;-93
2023/10/10 06:12:18;;;;;;;10.90;5.10;;;13.10;99.90;;;;;;4953722;29;20020;-92
2023/10/10 06:14:46;;;;;;;13.45;5.30;;;13.10;99.90;;;;;;4957116;29;20195;-91
2023/10/10 06:17:12;;;;;;;9.60;5.70;;;13.10;99.90;;;;;;4956791;28;20118;-93
2023/10/10 06:19:38;;;;;;;13.73;5.57;;;13.10;99.90;;;;;;4958168;29;20508;-92
2023/10/10 06:22:08;;;;;;;10.25;5.50;;;13.10;99.90;;;;;;4959772;29;20034;-91
2023/10/10 06:24:34;;;;;;;15.15;5.63;;;13.20;99.90;;;;;;4957462;29;20098;-91
2023/10/10 06:27:00;;;;;;;12.73;5.45;;;13.20;99.90;;;;;;4966057;29;20035;-94
2023/10/10 06:29:29;;;;;;;11.90;5.47;;;13.20;99.90;;;;;;4976592;29;20055;-89
2023/10/10 06:31:56;;;;;;;13.35;5.50;;;13.20;99.90;;;;;;4971223;29;20027;-91
2023/10/10 06:34:23;;;;;;;17.58;5.57;;;13.20;99.90;;;;;;4959592;29;20031;-92
2023/10/10 06:36:52;;;;;;;12.60;5.60;;;13.20;99.90;;;;;;4957229;29;20019;-92
2023/10/10 06:39:18;;;;;;;14.00;6.50;;;13.20;99.90;;;;;;4956949;28;20015;-91
2023/10/10 06:41:54;;;;;;;17.05;5.63;;;13.20;99.90;;;;;;4956744;28;20038;-91
2023/10/10 06:44:32;;;;;;;10.50;5.18;;;13.20;99.90;;;;;;4954477;29;20049;-92
2023/10/10 06:46:59;;;;;;;11.75;5.60;;;13.20;99.90;;;;;;4955520;28;20106;-91
2023/10/10 06:49:25;;;;;;;12.95;5.63;;;13.20;99.90;;;;;;4955786;28;20036;-93
2023/10/10 06:51:55;;;;;;;10.00;5.38;;;13.20;99.90;;;;;;4954647;29;20100;-92
2023/10/10 06:54:27;;;;;;;11.02;6.30;;;13.20;99.90;;;;;;4954357;29;20575;-91
2023/10/10 06:57:04;;;;;;;11.82;5.28;;;13.20;99.90;;;;;;4955059;29;20034;-91
2023/10/10 06:59:30;;;;;;;12.05;4.95;;;13.20;99.90;;;;;;4956401;29;20027;-92
2023/10/10 07:02:04;;;;;;;11.73;5.45;;;13.20;99.90;;;;;;4955921;29;20031;-90
2023/10/10 07:04:35;;;;;;;13.20;5.30;;;13.20;99.90;;;;;;4957577;28;20023;-91
2023/10/10 07:07:01;;;;;;;14.20;5.35;;;13.20;99.90;;;;;;4951132;29;20027;-90
2023/10/10 07:09:29;;;;;;;12.48;5.85;;;13.20;99.90;;;;;;4955497;29;20015;-90
2023/10/10 07:11:56;;;;;;;12.00;5.47;;;13.20;99.90;;;;;;4955362;29;20053;-91
2023/10/10 07:14:25;;;;;;;9.27;5.38;;;13.20;99.90;;;;;;4955293;29;20020;-91
2023/10/10 07:16:54;;;;;;;12.48;5.63;;;13.10;99.90;;;;;;4954083;29;20026;-91
2023/10/10 07:19:22;;;;;;;9.98;5.18;;;13.10;99.90;;;;;;4954270;29;20020;-91
2023/10/10 07:21:50;;;;;;;10.60;4.90;;;13.20;99.90;;;;;;4955072;29;20042;-91
2023/10/10 07:24:16;;;;;;;16.00;5.85;;;13.20;99.90;;;;;;4955183;29;20025;-90
2023/10/10 07:26:43;;;;;;;9.88;4.53;;;13.30;99.90;;;;;;4955515;29;20035;-90
2023/10/10 07:32:16;;;;;;;12.05;5.00;;;13.40;99.90;;;;;;4914429;29;20041;-92
2023/10/10 07:34:42;;;;;;;8.52;5.03;;;13.50;99.90;;;;;;4902634;29;20036;-92
2023/10/10 07:37:09;;;;;;;10.75;5.20;;;13.60;99.90;;;;;;4904683;29;20036;-92
2023/10/10 07:39:55;;;;;;;15.57;5.78;;;13.60;99.90;;;;;;4922474;29;20024;-92
2023/10/10 07:42:27;;;;;;;10.63;5.03;;;13.70;99.90;;;;;;4921974;29;20028;-92
2023/10/10 07:44:54;;;;;;;11.63;5.55;;;13.70;99.90;;;;;;4905277;29;20043;-92
2023/10/10 07:47:26;;;;;;;11.60;5.25;;;13.80;99.90;;;;;;4904643;29;20024;-93
2023/10/10 07:49:56;;;;;;;9.35;4.68;;;13.80;99.90;;;;;;4902659;29;20036;-92
2023/10/10 07:52:22;;;;;;;10.70;4.75;;;13.90;99.90;;;;;;4900514;29;20252;-92
2023/10/10 07:54:52;;;;;;;12.07;5.18;;;13.90;99.90;;;;;;4900890;29;20130;-93
2023/10/10 07:57:22;;;;;;;10.20;4.75;;;13.90;99.90;;;;;;4900602;29;20020;-93
2023/10/10 07:59:55;;;;;;;9.20;5.47;;;14.00;99.90;;;;;;4900400;29;20055;-92
2023/10/10 08:02:31;;;;;;;24.75;5.07;;;14.00;99.90;;;;;;4899923;29;20075;-93
2023/10/10 08:05:01;;;;;;;9.00;4.80;;;14.00;99.90;;;;;;4916160;29;20076;-93
2023/10/10 08:07:27;;;;;;;10.13;5.40;;;14.00;99.90;;;;;;4917232;29;20088;-93
2023/10/10 08:12:38;;;;;;;10.73;5.43;;;14.00;99.90;;;;;;4956338;29;20041;-94
2023/10/10 08:15:20;;;;;;;11.73;4.80;;;14.10;99.90;;;;;;4956423;28;20035;-93
2023/10/10 08:17:52;;;;;;;9.82;5.28;;;14.10;99.90;;;;;;4936233;29;20031;-93
2023/10/10 08:23:06;;;;;;;9.88;5.18;;;14.20;99.90;;;;;;4956522;29;20177;-94
2023/10/10 08:25:33;;;;;;;12.43;4.80;;;14.30;99.90;;;;;;4954914;29;20055;-93
2023/10/10 08:28:00;;;;;;;8.70;4.18;;;14.30;99.90;;;;;;4954426;29;20086;-94
2023/10/10 08:30:27;;;;;;;11.35;5.20;;;14.40;99.90;;;;;;4957729;29;20035;-93
2023/10/10 08:32:54;;;;;;;13.55;4.85;;;14.40;99.90;;;;;;4954181;29;20055;-92
2023/10/10 08:35:21;;;;;;;15.57;5.53;;;14.50;99.90;;;;;;4954566;29;20027;-93
2023/10/10 08:37:47;;;;;;;10.55;5.00;;;14.60;99.90;;;;;;4955610;28;20029;-94
2023/10/10 08:40:17;;;;;;;11.45;5.63;;;14.70;99.90;;;;;;4955598;28;20043;-91
2023/10/10 08:42:44;;;;;;;11.45;5.80;;;14.70;99.90;;;;;;4954419;29;20424;-90
2023/10/10 08:45:22;;;;;;;11.60;5.30;;;14.70;99.90;;;;;;4954792;29;20163;-93
2023/10/10 08:48:07;;;;;;;14.48;5.07;;;14.70;99.90;;;;;;4952857;28;20039;-91
2023/10/10 08:50:33;;;;;;;12.75;5.03;;;14.70;99.90;;;;;;4953923;29;20042;-92
2023/10/10 08:53:00;;;;;;;10.30;5.32;;;14.80;99.90;;;;;;4954045;29;20023;-93
2023/10/10 08:55:26;;;;;;;13.32;5.60;;;14.90;99.90;;;;;;4954328;29;20038;-92
2023/10/10 08:57:58;;;;;;;10.75;5.18;;;14.90;99.90;;;;;;4954108;29;20031;-93
2023/10/10 09:00:27;;;;;;;14.15;5.88;;;15.00;99.90;;;;;;4954092;29;20106;-92
2023/10/10 09:02:56;;;;;;;14.70;5.72;;;15.00;99.90;;;;;;4956664;29;20055;-93
2023/10/10 09:05:24;;;;;;;14.43;5.97;;;15.10;99.90;;;;;;4956828;28;20027;-90
2023/10/10 09:07:53;;;;;;;13.68;4.70;;;15.10;99.90;;;;;;4954257;29;20034;-91
2023/10/10 09:10:39;;;;;;;11.55;5.65;;;15.20;99.90;;;;;;4954313;29;20133;-92
2023/10/10 09:13:07;;;;;;;11.73;5.32;;;15.20;99.90;;;;;;4954160;28;20035;-92
2023/10/10 09:15:36;;;;;;;13.00;5.40;;;15.30;99.90;;;;;;4958157;28;20380;-91
2023/10/10 09:18:22;;;;;;;10.95;5.43;;;15.40;99.90;;;;;;4956971;29;20106;-92
2023/10/10 09:20:53;;;;;;;10.45;4.68;;;15.50;99.90;;;;;;4949353;28;20044;-90
2023/10/10 09:23:32;;;;;;;13.75;5.78;;;15.60;99.90;;;;;;4937885;29;20020;-92
2023/10/10 09:28:58;;;;;;;15.65;5.35;;;15.90;99.90;;;;;;4939687;29;20039;-92
2023/10/10 09:31:31;;;;;;;13.55;5.30;;;16.00;99.90;;;;;;4937848;29;20034;-92
2023/10/10 09:33:57;;;;;;;12.68;5.43;;;16.20;99.90;;;;;;4938239;29;20034;-92
2023/10/10 09:36:27;;;;;;;11.93;5.00;;;16.30;99.90;;;;;;4937971;29;20027;-91
2023/10/10 09:39:09;;;;;;;14.57;4.53;;;16.50;99.90;;;;;;4938031;29;20031;-92
2023/10/10 09:42:00;;;;;;;11.00;4.82;;;16.70;99.90;;;;;;4956152;29;20047;-92
2023/10/10 09:49:51;;;;;;;15.50;7.72;;;17.40;99.90;;;;;;4939603;29;20492;-93
2023/10/10 09:57:43;;;;;;;13.80;6.72;;;18.00;99.90;;;;;;4939492;29;20444;-92
2023/10/10 10:00:30;;;;;;;12.15;5.45;;;18.20;99.90;;;;;;4941023;29;20048;-91
2023/10/10 10:02:59;;;;;;;11.90;4.90;;;18.50;99.90;;;;;;4952641;29;20116;-91
2023/10/10 10:05:31;;;;;;;10.60;5.20;;;18.80;99.90;;;;;;4958836;29;20091;-90
2023/10/10 10:09:01;;;;;;;10.75;4.80;;;19.10;99.90;;;;;;4963830;28;20024;-91
2023/10/10 10:11:35;;;;;;;13.80;5.50;;;19.40;99.90;;;;;;4940575;29;20028;-92
2023/10/10 10:14:18;;;;;;;11.55;4.47;;;19.60;99.90;;;;;;4938311;29;20122;-92
2023/10/10 10:17:12;;;;;;;10.38;4.28;;;19.70;99.90;;;;;;4938306;29;20572;-92
2023/10/10 10:19:45;;;;;;;13.60;4.32;;;19.90;99.90;;;;;;4938927;29;20028;-91
2023/10/10 10:22:17;;;;;;;12.52;4.97;;;20.10;99.90;;;;;;4937243;29;20027;-92
2023/10/10 10:24:44;;;;;;;12.73;4.85;;;20.30;99.90;;;;;;4937740;29;20028;-92
2023/10/10 10:27:35;;;;;;;14.45;4.38;;;20.40;99.90;;;;;;4939671;29;20118;-92
2023/10/10 10:30:46;;;;;;;14.18;4.70;;;20.50;99.90;;;;;;4938741;29;20060;-91
2023/10/10 10:33:09;;;;;;;12.43;4.63;;;20.60;99.90;;;;;;4937969;29;20053;-93
2023/10/10 10:36:06;;;;;;;16.20;4.85;;;20.80;98.60;;;;;;4938914;29;20486;-93
2023/10/10 10:38:39;;;;;;;11.73;5.10;;;20.90;96.60;;;;;;4945012;29;20030;-92
2023/10/10 10:41:07;;;;;;;17.42;4.97;;;21.10;96.10;;;;;;4956135;29;20042;-93
2023/10/10 10:43:39;;;;;;;16.60;5.47;;;21.30;94.90;;;;;;4954642;29;20030;-92
2023/10/10 10:46:14;;;;;;;25.23;5.40;;;21.50;93.50;;;;;;4957619;29;20043;-93
2023/10/10 10:48:41;;;;;;;17.02;5.57;;;21.70;92.00;;;;;;4962283;29;20027;-93
2023/10/10 10:51:27;;;;;;;13.68;5.35;;;21.90;90.80;;;;;;4964119;29;20036;-93
2023/10/10 10:53:58;;;;;;;11.38;4.80;;;22.00;89.70;;;;;;4961549;29;20039;-91
2023/10/10 10:59:19;;;;;;;17.70;4.72;;;22.00;88.10;;;;;;4958922;28;20031;-92
2023/10/10 11:01:51;;;;;;;16.15;4.93;;;22.00;87.50;;;;;;4956986;29;20042;-92
2023/10/10 11:07:01;;;;;;;13.30;5.47;;;22.20;86.60;;;;;;4957324;28;20496;-93
2023/10/10 11:09:31;;;;;;;21.90;5.68;;;22.30;85.70;;;;;;4955919;29;20445;-93
2023/10/10 11:12:05;;;;;;;20.30;4.97;;;22.40;84.30;;;;;;4956069;29;20031;-93
2023/10/10 11:14:34;;;;;;;13.27;4.53;;;22.50;82.00;;;;;;4951549;29;20041;-93
2023/10/10 11:17:01;;;;;;;;;;;22.60;81.00;;;;;;4955960;29;20038;-93
2023/10/10 11:22:00;;;;;;;12.18;5.55;;;22.80;78.90;;;;;;4956150;28;20568;-93
2023/10/10 11:24:29;;;;;;;16.05;4.47;;;23.00;77.80;;;;;;4953042;29;20031;-92
2023/10/10 11:29:45;;;;;;;12.07;4.53;;;23.40;75.00;;;;;;4955058;29;20023;-93
2023/10/10 11:32:23;;;;;;;14.88;3.90;;;23.70;73.90;;;;;;4970154;28;20049;-92
2023/10/10 11:34:56;;;;;;;13.40;4.47;;;24.00;73.00;;;;;;4955908;28;20027;-92
2023/10/10 11:37:26;;;;;;;11.27;4.18;;;24.20;71.20;;;;;;4954652;29;20035;-91
2023/10/10 11:42:58;;;;;;;13.48;4.95;;;24.50;69.50;;;;;;4955063;29;20102;-92
2023/10/10 11:45:27;;;;;;;8.15;3.90;;;24.50;69.10;;;;;;4952851;29;20044;-92
2023/10/10 11:48:00;;;;;;;13.45;3.97;;;24.40;69.40;;;;;;4957768;29;20030;-92
2023/10/10 11:50:43;;;;;;;12.32;4.10;;;24.40;70.10;;;;;;4957899;29;20031;-92
2023/10/10 11:53:36;;;;;;;14.77;4.50;;;24.30;69.60;;;;;;4953181;29;20023;-92
2023/10/10 11:56:04;;;;;;;13.95;4.45;;;24.30;69.10;;;;;;4970927;28;20079;-91
2023/10/10 11:58:36;;;;;;;10.90;4.35;;;24.10;69.00;;;;;;4955408;29;20023;-92
2023/10/10 12:01:18;;;;;;;11.65;4.38;;;23.90;69.70;;;;;;4953679;29;20035;-93
2023/10/10 12:03:43;;;;;;;12.98;3.95;;;23.90;70.90;;;;;;4952144;29;20370;-92
2023/10/10 12:06:14;;;;;;;8.60;3.28;;;23.90;71.20;;;;;;4954150;29;20078;-93
2023/10/10 12:08:50;;;;;;;;;;;23.90;71.10;;;;;;4955324;29;20027;-93
2023/10/10 12:11:19;;;;;;;18.60;3.72;;;23.90;71.20;;;;;;4954601;29;19952;-93
2023/10/10 12:13:47;;;;;;;9.43;3.40;;;23.80;70.30;;;;;;4945584;29;20023;-92
2023/10/10 12:16:13;;;;;;;11.88;3.97;;;23.70;70.00;;;;;;4953560;29;20024;-92
2023/10/10 12:18:49;;;;;;;12.02;3.63;;;23.80;69.70;;;;;;4954917;29;20030;-92
2023/10/10 12:21:22;;;;;;;12.15;3.80;;;23.90;69.70;;;;;;4953545;29;20042;-93
2023/10/10 12:23:54;;;;;;;12.93;3.95;;;23.90;69.60;;;;;;4953429;29;20024;-93
2023/10/10 12:26:22;;;;;;;25.95;12.23;;;24.10;69.60;;;;;;4953293;29;20030;-92
2023/10/10 12:28:48;;;;;;;26.83;13.82;;;24.30;69.30;;;;;;4953385;29;20055;-92
2023/10/10 12:31:17;;;;;;;34.58;15.65;;;24.50;68.70;;;;;;4954941;28;20019;-94
2023/10/10 12:33:48;;;;;;;40.67;18.77;;;24.60;68.10;;;;;;4953761;29;20083;-92
2023/10/10 12:36:17;;;;;;;56.47;27.55;;;24.80;67.40;;;;;;4968107;28;20023;-93
2023/10/10 12:38:48;;;;;;;22.38;9.40;;;25.10;66.90;;;;;;4953479;29;20806;-93
2023/10/10 12:41:20;;;;;;;13.45;3.83;;;25.10;66.00;;;;;;4954032;29;20509;-92
2023/10/10 12:43:46;;;;;;;18.00;7.18;;;25.20;65.90;;;;;;4955476;29;20019;-93
2023/10/10 12:46:16;;;;;;;13.07;5.35;;;25.30;65.90;;;;;;4953829;29;20102;-94
2023/10/10 12:48:42;;;;;;;;;;;25.50;66.70;;;;;;4956320;28;20035;-92
2023/10/10 12:51:12;;;;;;;10.13;4.25;;;25.50;66.90;;;;;;4965262;28;19974;-94
2023/10/10 12:53:42;;;;;;;;;;;25.50;67.10;;;;;;4956318;29;20023;-92
2023/10/10 12:56:16;;;;;;;33.05;16.83;;;25.60;67.40;;;;;;4955950;29;19907;-92
2023/10/10 12:58:51;;;;;;;14.43;5.03;;;25.60;67.80;;;;;;4956881;29;20058;-93
2023/10/10 13:01:22;;;;;;;16.42;5.95;;;25.60;68.10;;;;;;4972379;28;20035;-92
2023/10/10 13:03:48;;;;;;;8.57;3.17;;;25.60;67.90;;;;;;4956980;29;20023;-92
2023/10/10 13:06:14;;;;;;;26.80;14.77;;;25.50;67.50;;;;;;4957051;29;20385;-94
2023/10/10 13:11:20;;;;;;;51.45;26.80;;;25.90;67.50;;;;;;4957103;29;20067;-91
2023/10/10 13:13:56;;;;;;;348.30;218.50;;;26.20;67.00;;;;;;4955401;29;20492;-92
2023/10/10 13:16:27;;;;;;;15.32;6.82;;;26.40;66.10;;;;;;4957250;28;20026;-92
2023/10/10 13:18:57;;;;;;;15.10;4.65;;;26.50;65.40;;;;;;4953688;29;20027;-93
2023/10/10 13:21:23;;;;;;;18.65;10.27;;;26.50;64.50;;;;;;4956911;29;20035;-91
2023/10/10 13:23:50;;;;;;;13.02;5.10;;;26.70;64.70;;;;;;4969930;28;20015;-92
2023/10/10 13:26:17;;;;;;;19.63;8.38;;;26.80;64.40;;;;;;4957242;29;20023;-92
2023/10/10 13:28:46;;;;;;;19.17;9.50;;;26.90;64.20;;;;;;4951643;29;20150;-93
2023/10/10 13:31:17;;;;;;;14.70;7.22;;;27.10;63.80;;;;;;4955022;29;20034;-93
2023/10/10 13:33:44;;;;;;;15.00;4.85;;;27.30;63.80;;;;;;4957198;29;20031;-93
2023/10/10 13:36:17;;;;;;;11.27;3.95;;;27.50;63.30;;;;;;4972913;28;20027;-93
2023/10/10 13:38:47;;;;;;;12.57;4.03;;;27.50;62.70;;;;;;4973359;29;20031;-91
2023/10/10 13:41:18;;;;;;;11.07;3.40;;;27.50;62.40;;;;;;4958236;29;20050;-92
2023/10/10 13:43:52;;;;;;;11.88;3.55;;;27.50;62.20;;;;;;4958193;29;20039;-93
2023/10/10 13:46:20;;;;;;;10.35;3.28;;;27.50;62.40;;;;;;4956462;29;20094;-93
2023/10/10 13:48:47;;;;;;;12.63;3.85;;;27.50;62.10;;;;;;4956913;29;20034;-93
2023/10/10 13:51:16;;;;;;;18.58;5.15;;;27.30;61.40;;;;;;4957646;29;20058;-94
2023/10/10 13:53:43;;;;;;;12.70;3.70;;;27.00;61.20;;;;;;4958511;29;20488;-93
2023/10/10 13:56:10;;;;;;;11.98;4.07;;;26.90;61.10;;;;;;4957842;29;20031;-91
2023/10/10 13:58:40;;;;;;;9.27;3.30;;;26.80;61.20;;;;;;4958417;28;20019;-93
2023/10/10 14:03:57;;;;;;;7.85;3.30;;;27.00;61.30;;;;;;4965598;28;20019;-91
2023/10/10 14:06:26;;;;;;;11.40;3.03;;;27.20;61.00;;;;;;4963120;29;20031;-92
2023/10/10 14:08:53;;;;;;;9.13;3.17;;;27.20;60.00;;;;;;4956767;29;20075;-93
2023/10/10 14:11:22;;;;;;;13.52;4.32;;;26.90;59.60;;;;;;4961219;29;20032;-91
2023/10/10 14:13:55;;;;;;;18.88;4.88;;;26.80;59.90;;;;;;4950934;29;20032;-91
2023/10/10 14:16:22;;;;;;;13.07;3.08;;;26.80;59.80;;;;;;4947779;29;20038;-91
2023/10/10 14:18:52;;;;;;;11.27;3.33;;;26.60;59.80;;;;;;4937189;29;20122;-92
2023/10/10 14:21:26;;;;;;;21.83;9.30;;;26.40;60.60;;;;;;4953732;29;20497;-92
2023/10/10 14:23:59;;;;;;;16.77;5.07;;;26.30;61.90;;;;;;4953909;29;20564;-93
2023/10/10 14:26:30;;;;;;;14.10;3.92;;;26.20;62.70;;;;;;4954050;29;20023;-92
2023/10/10 14:28:58;;;;;;;9.05;3.33;;;26.00;63.70;;;;;;4953625;29;20470;-93
2023/10/10 14:31:31;;;;;;;11.30;3.38;;;25.70;64.10;;;;;;4954518;29;20087;-93
2023/10/10 14:34:00;;;;;;;14.90;3.42;;;25.50;64.70;;;;;;4938093;29;20020;-92
2023/10/10 14:36:30;;;;;;;10.27;3.60;;;25.20;64.40;;;;;;4936776;29;20429;-92
2023/10/10 14:38:57;;;;;;;13.73;4.68;;;24.80;64.30;;;;;;4953255;29;20549;-92
2023/10/10 14:41:30;;;;;;;6.75;3.53;;;24.60;65.30;;;;;;4952808;29;20048;-93
2023/10/10 14:44:00;;;;;;;10.13;3.97;;;24.50;66.50;;;;;;4937774;29;20081;-91
2023/10/10 14:46:32;;;;;;;;;;;24.40;66.70;;;;;;4952887;29;20055;-91
2023/10/10 14:49:06;;;;;;;13.35;4.10;;;24.20;66.30;;;;;;4955517;29;19922;-91
2023/10/10 14:51:34;;;;;;;11.27;4.05;;;24.00;66.50;;;;;;4955409;29;20039;-91
2023/10/10 14:54:11;;;;;;;18.20;7.00;;;24.00;67.10;;;;;;4954958;29;20108;-91
2023/10/10 14:56:39;;;;;;;12.55;3.78;;;23.90;67.40;;;;;;4955547;29;20023;-92
2023/10/10 14:59:07;;;;;;;10.57;3.70;;;23.70;66.40;;;;;;4955293;29;20499;-93
2023/10/10 15:01:36;;;;;;;11.40;3.45;;;23.40;66.50;;;;;;4955529;29;20406;-92
2023/10/10 15:04:03;;;;;;;16.13;4.35;;;23.10;67.30;;;;;;4958273;29;20548;-93
2023/10/10 15:06:29;;;;;;;17.17;4.72;;;22.90;67.40;;;;;;4955945;29;20027;-93
2023/10/10 15:08:55;;;;;;;15.70;5.10;;;22.80;68.00;;;;;;4955418;29;20031;-91
2023/10/10 15:11:28;;;;;;;12.52;4.45;;;22.70;68.80;;;;;;4955358;28;20058;-91
2023/10/10 15:13:58;;;;;;;8.90;4.00;;;22.60;69.70;;;;;;4955899;29;20027;-91
2023/10/10 15:16:27;;;;;;;15.57;4.43;;;22.60;70.50;;;;;;4955399;29;20058;-92
2023/10/10 15:18:53;;;;;;;11.70;3.90;;;22.50;70.20;;;;;;4955930;29;20040;-91
2023/10/10 15:21:32;;;;;;;11.27;4.75;;;22.40;69.80;;;;;;4955561;29;20042;-92
2023/10/10 15:24:01;;;;;;;13.70;4.55;;;22.20;70.40;;;;;;4956441;28;20027;-91
2023/10/10 15:26:27;;;;;;;12.75;3.70;;;22.00;70.30;;;;;;4951527;29;20039;-92
2023/10/10 15:28:54;;;;;;;11.70;4.43;;;21.90;70.40;;;;;;4952375;29;20031;-92
2023/10/10 15:31:24;;;;;;;12.05;4.03;;;21.70;70.00;;;;;;4954803;29;20035;-93
2023/10/10 15:33:54;;;;;;;12.68;5.03;;;21.70;71.00;;;;;;4954493;29;20034;-93
2023/10/10 15:36:20;;;;;;;11.13;3.75;;;21.60;71.20;;;;;;4956289;28;20027;-92
2023/10/10 15:38:46;;;;;;;11.10;4.47;;;21.50;71.40;;;;;;4951498;29;20453;-93
2023/10/10 15:41:20;;;;;;;16.75;4.65;;;21.40;72.00;;;;;;4955200;29;20035;-92
2023/10/10 15:43:47;;;;;;;14.68;4.20;;;21.20;71.50;;;;;;4954957;29;20031;-92
2023/10/10 15:46:16;;;;;;;15.43;5.20;;;21.10;72.00;;;;;;4954179;29;20130;-91
2023/10/10 15:48:48;;;;;;;16.92;4.88;;;21.00;72.50;;;;;;4953229;29;20142;-93
2023/10/10 15:51:15;;;;;;;11.43;3.97;;;20.80;72.40;;;;;;4969172;28;20066;-92
2023/10/10 15:53:42;;;;;;;11.70;4.88;;;20.70;72.90;;;;;;4955859;29;20031;-92
2023/10/10 15:56:12;;;;;;;17.42;5.65;;;20.70;72.80;;;;;;4956240;29;20062;-92
2023/10/10 15:58:52;;;;;;;20.17;4.50;;;20.60;73.30;;;;;;4955615;29;20027;-92
2023/10/10 16:01:27;;;;;;;22.83;6.28;;;20.60;73.90;;;;;;4952924;29;20047;-93
2023/10/10 16:04:17;;;;;;;17.08;5.63;;;20.70;74.70;;;;;;4970073;28;20516;-92